createdAt,value
2024-03-15T00:01:58.749Z,14.40
2024-03-15T00:04:27.189Z,14.37
2024-03-15T00:06:57.480Z,14.34
2024-03-15T00:09:25.814Z,14.33
2024-03-15T00:11:54.101Z,14.30
2024-03-15T00:14:22.605Z,14.27
2024-03-15T00:16:51.831Z,14.26
2024-03-15T00:19:20.811Z,14.23
2024-03-15T00:21:49.260Z,14.23
2024-03-15T00:24:17.536Z,14.21
2024-03-15T00:26:48.447Z,14.19
2024-03-15T00:29:19.376Z,14.18
2024-03-15T00:31:48.144Z,14.18
2024-03-15T00:34:16.678Z,14.16
2024-03-15T00:36:46.143Z,14.16
2024-03-15T00:39:16.025Z,14.15
2024-03-15T00:41:44.317Z,14.14
2024-03-15T00:44:12.605Z,14.13
2024-03-15T00:46:40.935Z,14.12
2024-03-15T00:49:09.422Z,14.12
2024-03-15T00:51:37.797Z,14.12
2024-03-15T00:54:06.420Z,14.10
2024-03-15T00:56:34.728Z,14.10
2024-03-15T00:59:03.036Z,14.08
2024-03-15T01:01:31.612Z,14.07
2024-03-15T01:03:59.947Z,14.06
2024-03-15T01:06:28.352Z,14.05
2024-03-15T01:08:57.449Z,14.03
2024-03-15T01:11:25.939Z,14.03
2024-03-15T01:13:58.573Z,14.05
2024-03-15T01:16:28.062Z,14.05
2024-03-15T01:18:57.395Z,14.06
2024-03-15T01:21:27.382Z,14.07
2024-03-15T01:23:56.469Z,14.06
2024-03-15T01:26:24.789Z,14.07
2024-03-15T01:28:53.090Z,14.08
2024-03-15T01:31:21.611Z,14.09
2024-03-15T01:33:50.767Z,14.10
2024-03-15T01:36:19.400Z,14.11
2024-03-15T01:38:47.729Z,14.13
2024-03-15T01:41:16.054Z,14.12
2024-03-15T01:43:48.828Z,14.15
2024-03-15T01:46:17.118Z,14.16
2024-03-15T01:48:45.721Z,14.15
2024-03-15T01:51:14.283Z,14.15
2024-03-15T01:53:44.751Z,14.14
2024-03-15T01:56:13.829Z,14.14
2024-03-15T01:58:42.110Z,14.13
2024-03-15T02:01:12.635Z,14.12
2024-03-15T02:03:41.144Z,14.13
2024-03-15T02:06:09.718Z,14.13
2024-03-15T02:08:38.237Z,14.14
2024-03-15T02:11:06.615Z,14.14
2024-03-15T02:13:34.930Z,14.14
2024-03-15T02:16:03.298Z,14.14
2024-03-15T02:18:31.930Z,14.14
2024-03-15T02:21:00.297Z,14.15
2024-03-15T02:23:30.750Z,14.16
2024-03-15T02:25:59.284Z,14.16
2024-03-15T02:28:27.537Z,14.17
2024-03-15T02:30:56.197Z,14.16
2024-03-15T02:33:24.606Z,14.17
2024-03-15T02:35:52.891Z,14.17
2024-03-15T02:38:21.873Z,14.17
2024-03-15T02:40:50.184Z,14.17
2024-03-15T02:43:18.605Z,14.16
2024-03-15T02:45:47.021Z,14.16
2024-03-15T02:48:15.438Z,14.16
2024-03-15T02:50:43.720Z,14.16
2024-03-15T02:53:12.723Z,14.18
2024-03-15T02:55:41.051Z,14.17
2024-03-15T02:58:10.653Z,14.18
2024-03-15T03:00:38.970Z,14.17
2024-03-15T03:03:07.311Z,14.17
2024-03-15T03:05:35.694Z,14.17
2024-03-15T03:08:04.490Z,14.17
2024-03-15T03:10:32.778Z,14.16
2024-03-15T03:13:01.466Z,14.16
2024-03-15T03:15:30.319Z,14.14
2024-03-15T03:17:59.682Z,14.15
2024-03-15T03:20:29.517Z,14.15
2024-03-15T03:22:58.030Z,14.14
2024-03-15T03:25:26.439Z,14.13
2024-03-15T03:27:54.799Z,14.13
2024-03-15T03:30:23.202Z,14.11
2024-03-15T03:32:53.034Z,14.13
2024-03-15T03:35:21.361Z,14.13
2024-03-15T03:37:49.628Z,14.12
2024-03-15T03:40:17.920Z,14.13
2024-03-15T03:42:48.059Z,14.10
2024-03-15T03:45:20.392Z,14.08
2024-03-15T03:47:49.316Z,14.07
2024-03-15T03:50:18.636Z,14.07
2024-03-15T03:52:47.797Z,14.07
2024-03-15T03:55:16.449Z,14.06
2024-03-15T03:57:46.222Z,14.06
2024-03-15T04:00:16.949Z,14.07
2024-03-15T04:02:46.391Z,14.07
2024-03-15T04:05:15.176Z,14.06
2024-03-15T04:07:46.175Z,14.06
2024-03-15T04:10:15.199Z,14.05
2024-03-15T04:12:44.928Z,14.05
2024-03-15T04:17:44.517Z,14.03
2024-03-15T04:20:13.336Z,14.02
2024-03-15T04:22:43.502Z,14.03
2024-03-15T04:25:11.857Z,14.02
2024-03-15T04:27:41.208Z,14.01
2024-03-15T04:30:15.708Z,14.01
2024-03-15T04:32:47.542Z,14.00
2024-03-15T04:35:17.129Z,14.01
2024-03-15T04:37:45.663Z,14.01
2024-03-15T04:40:15.224Z,14.01
2024-03-15T04:42:43.820Z,14.00
2024-03-15T04:45:13.602Z,14.00
2024-03-15T04:47:42.408Z,13.99
2024-03-15T04:50:11.577Z,13.99
2024-03-15T04:52:40.877Z,13.98
2024-03-15T04:55:10.729Z,13.98
2024-03-15T04:57:39.923Z,13.97
2024-03-15T05:00:18.765Z,13.98
2024-03-15T05:02:49.007Z,13.96
2024-03-15T05:05:17.833Z,13.97
2024-03-15T05:07:47.793Z,13.96
2024-03-15T05:10:18.465Z,13.96
2024-03-15T05:12:47.892Z,13.97
2024-03-15T05:15:16.549Z,13.96
2024-03-15T05:17:44.992Z,13.96
2024-03-15T05:20:14.827Z,13.97
2024-03-15T05:22:45.391Z,13.97
2024-03-15T05:25:16.615Z,13.96
2024-03-15T05:27:45.615Z,13.97
2024-03-15T05:30:16.035Z,13.95
2024-03-15T05:32:44.952Z,13.96
2024-03-15T05:35:19.207Z,13.95
2024-03-15T05:37:47.649Z,13.95
2024-03-15T05:40:15.882Z,13.96
2024-03-15T05:42:44.259Z,13.96
2024-03-15T05:45:14.193Z,13.95
2024-03-15T05:47:42.593Z,13.95
2024-03-15T05:50:10.945Z,13.95
2024-03-15T05:52:40.041Z,13.95
2024-03-15T05:55:09.752Z,13.94
2024-03-15T05:57:38.118Z,13.96
2024-03-15T06:00:17.006Z,13.94
2024-03-15T06:02:46.545Z,13.94
2024-03-15T06:05:14.915Z,13.93
2024-03-15T06:07:43.459Z,13.94
2024-03-15T06:10:11.849Z,13.94
2024-03-15T06:12:40.221Z,13.94
2024-03-15T06:15:10.762Z,13.93
2024-03-15T06:17:41.040Z,13.94
2024-03-15T06:20:11.694Z,13.95
2024-03-15T06:22:40.432Z,13.95
2024-03-15T06:25:09.330Z,13.94
2024-03-15T06:27:40.235Z,13.95
2024-03-15T06:30:09.490Z,13.95
2024-03-15T06:32:39.853Z,13.95
2024-03-15T06:35:20.595Z,13.95
2024-03-15T06:37:54.660Z,13.95
2024-03-15T06:40:31.834Z,13.96
2024-03-15T06:43:14.638Z,13.97
2024-03-15T06:45:58.200Z,13.97
2024-03-15T06:48:34.496Z,13.97
2024-03-15T06:51:23.016Z,13.97
2024-03-15T06:53:50.725Z,13.98
2024-03-15T06:56:19.049Z,13.98
2024-03-15T06:58:47.410Z,13.98
2024-03-15T07:01:15.768Z,13.99
2024-03-15T07:03:45.231Z,14.00
2024-03-15T07:06:13.571Z,14.02
2024-03-15T07:08:41.871Z,14.04
2024-03-15T07:11:10.254Z,14.06
2024-03-15T07:13:38.813Z,14.06
2024-03-15T07:16:09.410Z,14.08
2024-03-15T07:18:38.437Z,14.09
2024-03-15T07:21:07.141Z,14.09
2024-03-15T07:23:36.765Z,14.10
2024-03-15T07:26:05.245Z,14.10
2024-03-15T07:28:33.894Z,14.12
2024-03-15T07:31:02.575Z,14.12
2024-03-15T07:33:31.663Z,14.13
2024-03-15T07:36:02.532Z,14.15
2024-03-15T07:38:31.327Z,14.15
2024-03-15T07:40:59.865Z,14.16
2024-03-15T07:43:28.438Z,14.15
2024-03-15T07:45:57.010Z,14.15
2024-03-15T07:48:25.549Z,14.15
2024-03-15T07:50:53.884Z,14.15
2024-03-15T07:53:22.426Z,14.12
2024-03-15T07:55:51.437Z,14.12
2024-03-15T07:58:19.724Z,14.11
2024-03-15T08:00:48.393Z,14.11
2024-03-15T08:03:20.475Z,14.12
2024-03-15T08:05:49.976Z,14.12
2024-03-15T08:08:18.689Z,14.12
2024-03-15T08:10:47.209Z,14.13
2024-03-15T08:13:16.376Z,14.12
2024-03-15T08:15:46.469Z,14.13
2024-03-15T08:18:15.274Z,14.15
2024-03-15T08:20:43.872Z,14.16
2024-03-15T08:23:15.385Z,14.19
2024-03-15T08:25:44.334Z,14.20
2024-03-15T08:28:16.631Z,14.23
2024-03-15T08:30:48.978Z,14.24
2024-03-15T08:33:17.652Z,14.23
2024-03-15T08:35:45.976Z,14.22
2024-03-15T08:38:14.509Z,14.21
2024-03-15T08:40:43.260Z,14.21
2024-03-15T08:43:11.891Z,14.20
2024-03-15T08:45:40.391Z,14.21
2024-03-15T08:48:08.867Z,14.22
2024-03-15T08:50:37.253Z,14.22
2024-03-15T08:53:08.827Z,14.24
2024-03-15T08:55:40.054Z,14.27
2024-03-15T08:58:08.716Z,14.27
2024-03-15T09:00:39.508Z,14.28
2024-03-15T09:03:10.534Z,14.29
2024-03-15T09:05:39.821Z,14.31
2024-03-15T09:08:12.218Z,14.33
2024-03-15T09:10:41.154Z,14.35
2024-03-15T09:13:10.204Z,14.38
2024-03-15T09:15:39.298Z,14.41
2024-03-15T09:18:09.963Z,14.44
2024-03-15T09:20:43.825Z,14.47
2024-03-15T09:23:13.466Z,14.52
2024-03-15T09:25:44.060Z,14.54
2024-03-15T09:28:13.394Z,14.56
2024-03-15T09:31:01.311Z,14.59
2024-03-15T09:33:37.284Z,14.62
2024-03-15T09:36:06.929Z,14.65
2024-03-15T09:38:35.649Z,14.69
2024-03-15T09:41:07.142Z,14.71
2024-03-15T09:43:36.164Z,14.74
2024-03-15T09:46:05.763Z,14.77
2024-03-15T09:48:35.377Z,14.80
2024-03-15T09:51:05.129Z,14.83
2024-03-15T09:53:33.476Z,14.86
2024-03-15T09:56:02.223Z,14.91
2024-03-15T09:58:31.223Z,14.96
2024-03-15T10:01:00.117Z,14.98
2024-03-15T10:03:28.643Z,15.00
2024-03-15T10:05:59.102Z,15.03
2024-03-15T10:08:28.865Z,15.06
2024-03-15T10:10:57.259Z,15.09
2024-03-15T10:13:25.642Z,15.10
2024-03-15T10:15:54.013Z,15.09
2024-03-15T10:18:22.553Z,15.09
2024-03-15T10:20:50.975Z,15.10
2024-03-15T10:23:19.243Z,15.12
2024-03-15T10:25:47.498Z,15.12
2024-03-15T10:28:20.875Z,15.14
2024-03-15T10:30:50.322Z,15.16
2024-03-15T10:33:19.167Z,15.19
2024-03-15T10:35:47.558Z,15.22
2024-03-15T10:38:16.485Z,15.26
2024-03-15T10:40:44.808Z,15.28
2024-03-15T10:43:13.266Z,15.31
2024-03-15T10:45:44.729Z,15.35
2024-03-15T10:48:13.315Z,15.39
2024-03-15T10:50:41.648Z,15.40
2024-03-15T10:53:10.590Z,15.44
2024-03-15T10:55:38.965Z,15.47
2024-03-15T10:58:10.396Z,15.51
2024-03-15T11:00:38.981Z,15.54
2024-03-15T11:03:14.059Z,15.58
2024-03-15T11:05:42.894Z,15.62
2024-03-15T11:08:11.344Z,15.65
2024-03-15T11:10:40.008Z,15.68
2024-03-15T11:13:09.417Z,15.71
2024-03-15T11:15:38.078Z,15.72
2024-03-15T11:18:07.688Z,15.76
2024-03-15T11:20:46.112Z,15.79
2024-03-15T11:23:15.040Z,15.82
2024-03-15T11:25:46.437Z,15.84
2024-03-15T11:28:14.780Z,15.86
2024-03-15T11:30:43.402Z,15.85
2024-03-15T11:33:11.994Z,15.88
2024-03-15T11:35:42.001Z,15.90
2024-03-15T11:38:13.531Z,15.95
2024-03-15T11:40:41.907Z,15.98
2024-03-15T11:43:13.812Z,16.00
2024-03-15T11:45:43.301Z,16.01
2024-03-15T11:48:16.162Z,16.00
2024-03-15T11:50:45.913Z,16.01
2024-03-15T11:53:15.538Z,16.02
2024-03-15T11:55:43.916Z,16.03
2024-03-15T11:58:13.994Z,16.04
2024-03-15T12:00:42.447Z,16.06
2024-03-15T12:03:11.370Z,16.08
2024-03-15T12:05:41.695Z,16.10
2024-03-15T12:08:12.080Z,16.10
2024-03-15T12:10:40.471Z,16.09
2024-03-15T12:13:16.411Z,16.10
2024-03-15T12:15:44.941Z,16.08
2024-03-15T12:18:14.238Z,16.06
2024-03-15T12:20:43.070Z,16.06
2024-03-15T12:23:12.511Z,16.06
2024-03-15T12:25:40.841Z,16.07
2024-03-15T12:28:09.362Z,16.10
2024-03-15T12:30:37.736Z,16.12
2024-03-15T12:33:06.367Z,16.14
2024-03-15T12:35:37.427Z,16.15
2024-03-15T12:38:07.058Z,16.17
2024-03-15T12:40:35.866Z,16.18
2024-03-15T12:43:04.647Z,16.18
2024-03-15T12:45:33.053Z,16.18
2024-03-15T12:48:01.528Z,16.18
2024-03-15T12:50:30.364Z,16.18
2024-03-15T12:53:00.467Z,16.21
2024-03-15T12:55:28.899Z,16.23
2024-03-15T12:57:57.518Z,16.26
2024-03-15T13:00:30.333Z,16.32
2024-03-15T13:02:59.389Z,16.37
2024-03-15T13:05:27.721Z,16.44
2024-03-15T13:07:56.074Z,16.47
2024-03-15T13:10:24.704Z,16.52
2024-03-15T13:12:53.932Z,16.53
2024-03-15T13:15:22.594Z,16.56
2024-03-15T13:17:53.494Z,16.58
2024-03-15T13:20:23.449Z,16.58
2024-03-15T13:22:54.604Z,16.59
2024-03-15T13:25:33.678Z,16.58
2024-03-15T13:28:07.498Z,16.55
2024-03-15T13:30:38.844Z,16.54
2024-03-15T13:33:11.084Z,16.53
2024-03-15T13:35:42.424Z,16.51
2024-03-15T13:38:14.842Z,16.49
2024-03-15T13:40:43.529Z,16.48
2024-03-15T13:43:12.057Z,16.48
2024-03-15T13:45:40.710Z,16.46
2024-03-15T13:48:28.238Z,16.46
2024-03-15T13:50:58.129Z,16.47
2024-03-15T13:53:26.437Z,16.46
2024-03-15T13:55:54.869Z,16.45
2024-03-15T13:58:23.140Z,16.44
2024-03-15T14:00:51.584Z,16.45
2024-03-15T14:03:20.794Z,16.44
2024-03-15T14:05:49.310Z,16.41
2024-03-15T14:08:21.019Z,16.41
2024-03-15T14:10:49.796Z,16.36
2024-03-15T14:13:19.556Z,16.32
2024-03-15T14:15:49.268Z,16.26
2024-03-15T14:18:19.444Z,16.18
2024-03-15T14:20:48.526Z,16.11
2024-03-15T14:23:17.070Z,16.08
2024-03-15T14:25:46.207Z,16.07
2024-03-15T14:28:14.959Z,16.09
2024-03-15T14:30:43.330Z,16.12
2024-03-15T14:33:12.184Z,16.14
2024-03-15T14:35:40.835Z,16.15
2024-03-15T14:38:10.739Z,16.17
2024-03-15T14:40:40.984Z,16.22
2024-03-15T14:43:11.801Z,16.27
2024-03-15T14:45:41.780Z,16.33
2024-03-15T14:48:15.002Z,16.36
2024-03-15T14:50:45.247Z,16.37
2024-03-15T14:53:17.082Z,16.37
2024-03-15T14:55:46.795Z,16.35
2024-03-15T14:58:16.044Z,16.33
2024-03-15T15:00:49.162Z,16.32
2024-03-15T15:03:17.875Z,16.30
2024-03-15T15:05:47.717Z,16.27
2024-03-15T15:08:16.016Z,16.22
2024-03-15T15:10:44.511Z,16.10
2024-03-15T15:13:13.272Z,15.81
2024-03-15T15:15:42.999Z,15.46
2024-03-15T15:18:12.956Z,15.13
2024-03-15T15:20:42.607Z,14.89
2024-03-15T15:23:11.222Z,14.72
2024-03-15T15:25:40.914Z,14.54
2024-03-15T15:28:09.445Z,14.39
2024-03-15T15:30:38.100Z,14.25
2024-03-15T15:33:06.512Z,14.16
2024-03-15T15:35:34.870Z,14.10
2024-03-15T15:38:04.659Z,14.02
2024-03-15T15:40:33.099Z,13.96
2024-03-15T15:43:01.846Z,13.91
2024-03-15T15:45:33.093Z,13.86
2024-03-15T15:48:05.625Z,13.81
2024-03-15T15:50:34.896Z,13.76
2024-03-15T15:53:03.442Z,13.73
2024-03-15T15:55:34.087Z,13.70
2024-03-15T15:58:02.359Z,13.65
2024-03-15T16:00:31.022Z,13.64
2024-03-15T16:03:01.468Z,13.64
2024-03-15T16:05:30.792Z,13.62
2024-03-15T16:08:04.602Z,13.60
2024-03-15T16:10:33.221Z,13.58
2024-03-15T16:13:02.231Z,13.57
2024-03-15T16:15:30.767Z,13.57
2024-03-15T16:17:59.340Z,13.56
2024-03-15T16:20:29.333Z,13.56
2024-03-15T16:22:59.071Z,13.53
2024-03-15T16:25:27.498Z,13.51
2024-03-15T16:27:55.840Z,13.50
2024-03-15T16:30:24.967Z,13.49
2024-03-15T16:33:01.497Z,13.49
2024-03-15T16:35:31.565Z,13.50
2024-03-15T16:37:59.847Z,13.50
2024-03-15T16:40:28.641Z,13.49
2024-03-15T16:42:58.603Z,13.48
2024-03-15T16:45:27.236Z,13.47
2024-03-15T16:47:55.803Z,13.48
2024-03-15T16:50:26.012Z,13.47
2024-03-15T16:52:54.399Z,13.45
2024-03-15T16:55:24.283Z,13.45
2024-03-15T16:57:52.674Z,13.46
2024-03-15T17:00:22.423Z,13.45
2024-03-15T17:02:51.145Z,13.43
2024-03-15T17:05:19.871Z,13.43
2024-03-15T17:07:49.712Z,13.43
2024-03-15T17:10:18.224Z,13.41
2024-03-15T17:12:46.558Z,13.41
2024-03-15T17:15:15.287Z,13.40
2024-03-15T17:17:44.442Z,13.38
2024-03-15T17:20:12.899Z,13.37
2024-03-15T17:22:41.201Z,13.36
2024-03-15T17:25:10.046Z,13.36
2024-03-15T17:27:38.511Z,13.35
2024-03-15T17:30:10.985Z,13.33
2024-03-15T17:32:41.695Z,13.32
2024-03-15T17:35:10.776Z,13.32
2024-03-15T17:37:39.050Z,13.31
2024-03-15T17:40:10.660Z,13.29
2024-03-15T17:42:39.694Z,13.29
2024-03-15T17:45:11.278Z,13.26
2024-03-15T17:47:39.867Z,13.26
2024-03-15T17:50:09.005Z,13.24
2024-03-15T17:52:37.305Z,13.22
2024-03-15T17:55:06.129Z,13.21
2024-03-15T17:57:34.510Z,13.19
2024-03-15T18:00:12.812Z,13.16
2024-03-15T18:02:41.591Z,13.15
2024-03-15T18:05:11.953Z,13.14
2024-03-15T18:07:40.412Z,13.11
2024-03-15T18:10:10.130Z,13.11
2024-03-15T18:12:39.007Z,13.08
2024-03-15T18:15:07.569Z,13.07
2024-03-15T18:17:35.852Z,13.06
2024-03-15T18:20:04.906Z,13.06
2024-03-15T18:22:33.264Z,13.04
2024-03-15T18:25:03.050Z,13.03
2024-03-15T18:27:31.456Z,13.03
2024-03-15T18:29:59.727Z,13.02
2024-03-15T18:32:29.221Z,13.00
2024-03-15T18:34:57.802Z,12.99
2024-03-15T18:37:26.042Z,12.98
2024-03-15T18:39:56.030Z,12.96
2024-03-15T18:42:24.503Z,12.95
2024-03-15T18:44:53.139Z,12.92
2024-03-15T18:47:21.473Z,12.91
2024-03-15T18:49:51.950Z,12.89
2024-03-15T18:52:20.363Z,12.87
2024-03-15T18:54:50.571Z,12.86
2024-03-15T18:57:19.126Z,12.83
2024-03-15T18:59:47.642Z,12.82
2024-03-15T19:02:20.068Z,12.81
2024-03-15T19:04:52.389Z,12.79
2024-03-15T19:07:22.864Z,12.78
2024-03-15T19:09:51.309Z,12.76
2024-03-15T19:12:19.882Z,12.74
2024-03-15T19:14:48.199Z,12.72
2024-03-15T19:17:16.547Z,12.70
2024-03-15T19:19:45.384Z,12.68
2024-03-15T19:22:13.644Z,12.66
2024-03-15T19:24:41.929Z,12.65
2024-03-15T19:27:10.239Z,12.64
2024-03-15T19:29:38.900Z,12.63
2024-03-15T19:32:11.042Z,12.60
2024-03-15T19:34:40.543Z,12.58
2024-03-15T19:37:08.908Z,12.56
2024-03-15T19:39:37.272Z,12.54
2024-03-15T19:42:05.928Z,12.53
2024-03-15T19:44:34.178Z,12.51
2024-03-15T19:47:04.986Z,12.50
2024-03-15T19:49:33.743Z,12.47
2024-03-15T19:52:02.175Z,12.46
2024-03-15T19:54:30.616Z,12.43
2024-03-15T19:56:58.969Z,12.42
2024-03-15T19:59:27.367Z,12.40
2024-03-15T20:01:56.178Z,12.38
2024-03-15T20:04:25.711Z,12.37
2024-03-15T20:06:55.077Z,12.35
2024-03-15T20:09:24.435Z,12.33
2024-03-15T20:11:52.957Z,12.30
2024-03-15T20:14:22.007Z,12.28
2024-03-15T20:16:51.868Z,12.28
2024-03-15T20:19:21.577Z,12.26
2024-03-15T20:21:49.979Z,12.22
2024-03-15T20:24:19.053Z,12.20
2024-03-15T20:26:48.830Z,12.18
2024-03-15T20:29:17.096Z,12.16
2024-03-15T20:31:45.502Z,12.15
2024-03-15T20:34:13.855Z,12.13
2024-03-15T20:36:42.316Z,12.11
2024-03-15T20:39:14.527Z,12.09
2024-03-15T20:41:42.996Z,12.07
2024-03-15T20:44:11.384Z,12.05
2024-03-15T20:46:39.633Z,12.04
2024-03-15T20:49:07.935Z,12.03
2024-03-15T20:51:36.377Z,12.02
2024-03-15T20:54:05.809Z,12.01
2024-03-15T20:56:34.679Z,11.98
2024-03-15T20:59:05.236Z,11.97
2024-03-15T21:01:33.599Z,11.96
2024-03-15T21:04:02.390Z,11.95
2024-03-15T21:06:31.439Z,11.95
2024-03-15T21:08:59.938Z,11.94
2024-03-15T21:11:28.667Z,11.94
2024-03-15T21:13:57.099Z,11.92
2024-03-15T21:16:25.389Z,11.91
2024-03-15T21:18:53.733Z,11.90
2024-03-15T21:21:23.020Z,11.90
2024-03-15T21:23:51.457Z,11.88
2024-03-15T21:26:19.766Z,11.87
2024-03-15T21:28:48.047Z,11.86
2024-03-15T21:31:17.035Z,11.86
2024-03-15T21:33:46.885Z,11.85
2024-03-15T21:36:15.361Z,11.85
2024-03-15T21:38:43.635Z,11.84
2024-03-15T21:41:13.556Z,11.84
2024-03-15T21:43:41.884Z,11.85
2024-03-15T21:46:13.181Z,11.83
2024-03-15T21:48:42.525Z,11.84
2024-03-15T21:51:10.922Z,11.84
2024-03-15T21:53:42.502Z,11.85
2024-03-15T21:56:11.290Z,11.84
2024-03-15T21:58:42.615Z,11.84
2024-03-15T22:01:13.434Z,11.84
2024-03-15T22:03:41.866Z,11.84
2024-03-15T22:06:10.735Z,11.83
2024-03-15T22:08:40.247Z,11.83
2024-03-15T22:11:09.434Z,11.82
2024-03-15T22:13:38.126Z,11.82
2024-03-15T22:16:07.569Z,11.81
2024-03-15T22:18:36.262Z,11.80
2024-03-15T22:21:05.244Z,11.80
2024-03-15T22:23:33.579Z,11.81
2024-03-15T22:26:03.148Z,11.80
2024-03-15T22:28:31.582Z,11.78
2024-03-15T22:31:00.792Z,11.78
2024-03-15T22:33:29.366Z,11.78
2024-03-15T22:35:58.244Z,11.79
2024-03-15T22:38:27.061Z,11.80
2024-03-15T22:40:56.159Z,11.80
2024-03-15T22:43:24.433Z,11.80
2024-03-15T22:45:52.711Z,11.81
2024-03-15T22:48:21.043Z,11.81
2024-03-15T22:50:49.465Z,11.80
2024-03-15T22:53:17.882Z,11.82
2024-03-15T22:55:49.598Z,11.82
2024-03-15T22:58:18.119Z,11.81
2024-03-15T23:00:48.791Z,11.83
2024-03-15T23:03:17.145Z,11.82
2024-03-15T23:05:46.832Z,11.82
2024-03-15T23:08:16.162Z,11.82
2024-03-15T23:10:45.784Z,11.81
2024-03-15T23:13:15.180Z,11.79
2024-03-15T23:15:43.878Z,11.81
2024-03-15T23:18:12.487Z,11.78
2024-03-15T23:20:41.256Z,11.76
2024-03-15T23:23:11.503Z,11.78
2024-03-15T23:25:39.783Z,11.77
2024-03-15T23:28:10.336Z,11.78
2024-03-15T23:30:38.679Z,11.79
2024-03-15T23:33:08.028Z,11.78
2024-03-15T23:35:36.581Z,11.79
2024-03-15T23:38:06.750Z,11.80
2024-03-15T23:40:38.503Z,11.81
2024-03-15T23:43:09.404Z,11.81
2024-03-15T23:45:38.173Z,11.82
2024-03-15T23:48:07.277Z,11.82
2024-03-15T23:50:35.584Z,11.83
2024-03-15T23:53:03.944Z,11.83
2024-03-15T23:55:32.213Z,11.83
2024-03-15T23:58:00.567Z,11.85
